sensor_id;sensor_type;location;lat;lon;timestamp;P1;durP1;ratioP1;P2;durP2;ratioP2
53207;SDS011;39093;52.788;6.940;2023-02-08T00:00:54;28.77;;;18.50;;
53207;SDS011;39093;52.788;6.940;2023-02-08T00:03:21;30.13;;;18.88;;
53207;SDS011;39093;52.788;6.940;2023-02-08T00:05:48;32.47;;;19.95;;
53207;SDS011;39093;52.788;6.940;2023-02-08T00:08:15;28.05;;;19.48;;
53207;SDS011;39093;52.788;6.940;2023-02-08T00:10:42;29.50;;;19.83;;
53207;SDS011;39093;52.788;6.940;2023-02-08T00:13:09;28.35;;;19.58;;
53207;SDS011;39093;52.788;6.940;2023-02-08T00:15:40;32.90;;;19.90;;
53207;SDS011;39093;52.788;6.940;2023-02-08T00:18:08;31.60;;;20.08;;
53207;SDS011;39093;52.788;6.940;2023-02-08T00:20:39;33.65;;;20.17;;
53207;SDS011;39093;52.788;6.940;2023-02-08T00:23:08;29.30;;;19.50;;
53207;SDS011;39093;52.788;6.940;2023-02-08T00:25:35;28.23;;;20.10;;
53207;SDS011;39093;52.788;6.940;2023-02-08T00:28:02;34.40;;;20.60;;
53207;SDS011;39093;52.788;6.940;2023-02-08T00:30:30;30.23;;;19.90;;
53207;SDS011;39093;52.788;6.940;2023-02-08T00:32:58;33.45;;;20.02;;
53207;SDS011;39093;52.788;6.940;2023-02-08T00:35:26;30.88;;;21.85;;
53207;SDS011;39093;52.788;6.940;2023-02-08T00:37:54;31.17;;;20.75;;
53207;SDS011;39093;52.788;6.940;2023-02-08T00:40:21;32.70;;;21.40;;
53207;SDS011;39093;52.788;6.940;2023-02-08T00:42:48;34.33;;;20.83;;
53207;SDS011;39093;52.788;6.940;2023-02-08T00:45:15;30.75;;;20.50;;
53207;SDS011;39093;52.788;6.940;2023-02-08T00:47:43;31.83;;;19.58;;
53207;SDS011;39093;52.788;6.940;2023-02-08T00:50:10;27.58;;;19.92;;
53207;SDS011;39093;52.788;6.940;2023-02-08T00:52:37;27.58;;;18.98;;
53207;SDS011;39093;52.788;6.940;2023-02-08T00:55:04;27.17;;;18.67;;
53207;SDS011;39093;52.788;6.940;2023-02-08T00:57:32;29.58;;;20.13;;
53207;SDS011;39093;52.788;6.940;2023-02-08T00:59:59;30.92;;;19.85;;
53207;SDS011;39093;52.788;6.940;2023-02-08T01:02:27;37.25;;;20.42;;
53207;SDS011;39093;52.788;6.940;2023-02-08T01:04:54;31.42;;;20.25;;
53207;SDS011;39093;52.788;6.940;2023-02-08T01:07:21;30.70;;;20.05;;
53207;SDS011;39093;52.788;6.940;2023-02-08T01:09:47;32.58;;;21.80;;
53207;SDS011;39093;52.788;6.940;2023-02-08T01:12:14;30.70;;;21.23;;
53207;SDS011;39093;52.788;6.940;2023-02-08T01:14:42;39.65;;;22.42;;
53207;SDS011;39093;52.788;6.940;2023-02-08T01:17:09;28.92;;;21.10;;
53207;SDS011;39093;52.788;6.940;2023-02-08T01:19:36;32.30;;;21.45;;
53207;SDS011;39093;52.788;6.940;2023-02-08T01:22:02;27.08;;;18.63;;
53207;SDS011;39093;52.788;6.940;2023-02-08T01:24:29;32.88;;;21.98;;
53207;SDS011;39093;52.788;6.940;2023-02-08T01:26:56;38.22;;;21.33;;
53207;SDS011;39093;52.788;6.940;2023-02-08T01:29:24;31.13;;;21.08;;
53207;SDS011;39093;52.788;6.940;2023-02-08T01:31:51;30.25;;;20.48;;
53207;SDS011;39093;52.788;6.940;2023-02-08T01:34:18;35.55;;;21.05;;
53207;SDS011;39093;52.788;6.940;2023-02-08T01:36:44;29.27;;;19.88;;
53207;SDS011;39093;52.788;6.940;2023-02-08T01:39:11;35.67;;;21.45;;
53207;SDS011;39093;52.788;6.940;2023-02-08T01:41:39;31.25;;;20.45;;
53207;SDS011;39093;52.788;6.940;2023-02-08T01:49:08;32.45;;;19.92;;
53207;SDS011;39093;52.788;6.940;2023-02-08T01:51:41;47.42;;;21.95;;
53207;SDS011;39093;52.788;6.940;2023-02-08T01:54:17;28.00;;;18.75;;
53207;SDS011;39093;52.788;6.940;2023-02-08T01:56:47;31.23;;;19.27;;
53207;SDS011;39093;52.788;6.940;2023-02-08T01:59:23;30.80;;;19.80;;
53207;SDS011;39093;52.788;6.940;2023-02-08T02:01:52;32.85;;;20.63;;
53207;SDS011;39093;52.788;6.940;2023-02-08T02:04:23;30.33;;;20.60;;
53207;SDS011;39093;52.788;6.940;2023-02-08T02:06:52;32.33;;;21.40;;
53207;SDS011;39093;52.788;6.940;2023-02-08T02:12:03;32.08;;;21.23;;
53207;SDS011;39093;52.788;6.940;2023-02-08T02:14:33;33.83;;;21.48;;
53207;SDS011;39093;52.788;6.940;2023-02-08T02:17:02;35.83;;;22.20;;
53207;SDS011;39093;52.788;6.940;2023-02-08T02:19:36;33.90;;;22.30;;
53207;SDS011;39093;52.788;6.940;2023-02-08T02:27:58;33.88;;;22.48;;
53207;SDS011;39093;52.788;6.940;2023-02-08T02:36:26;33.47;;;22.88;;
53207;SDS011;39093;52.788;6.940;2023-02-08T02:47:07;32.08;;;22.42;;
53207;SDS011;39093;52.788;6.940;2023-02-08T02:49:38;37.10;;;22.15;;
53207;SDS011;39093;52.788;6.940;2023-02-08T02:52:28;31.25;;;21.08;;
53207;SDS011;39093;52.788;6.940;2023-02-08T02:55:04;37.95;;;21.88;;
53207;SDS011;39093;52.788;6.940;2023-02-08T02:57:36;32.92;;;20.98;;
53207;SDS011;39093;52.788;6.940;2023-02-08T03:00:08;31.17;;;21.33;;
53207;SDS011;39093;52.788;6.940;2023-02-08T03:02:37;32.40;;;20.92;;
53207;SDS011;39093;52.788;6.940;2023-02-08T03:05:05;30.67;;;21.88;;
53207;SDS011;39093;52.788;6.940;2023-02-08T03:07:40;31.65;;;21.45;;
53207;SDS011;39093;52.788;6.940;2023-02-08T03:13:12;38.67;;;23.55;;
53207;SDS011;39093;52.788;6.940;2023-02-08T03:27:03;34.83;;;22.85;;
53207;SDS011;39093;52.788;6.940;2023-02-08T03:29:40;34.00;;;21.95;;
53207;SDS011;39093;52.788;6.940;2023-02-08T03:35:14;32.65;;;21.92;;
53207;SDS011;39093;52.788;6.940;2023-02-08T03:37:54;34.45;;;22.60;;
53207;SDS011;39093;52.788;6.940;2023-02-08T03:40:34;32.65;;;22.15;;
53207;SDS011;39093;52.788;6.940;2023-02-08T03:43:19;32.35;;;22.73;;
53207;SDS011;39093;52.788;6.940;2023-02-08T03:46:01;34.28;;;22.23;;
53207;SDS011;39093;52.788;6.940;2023-02-08T03:48:37;36.05;;;23.33;;
53207;SDS011;39093;52.788;6.940;2023-02-08T03:51:06;42.42;;;23.77;;
53207;SDS011;39093;52.788;6.940;2023-02-08T03:53:34;33.88;;;21.98;;
53207;SDS011;39093;52.788;6.940;2023-02-08T03:56:08;36.08;;;23.45;;
53207;SDS011;39093;52.788;6.940;2023-02-08T03:58:51;38.42;;;23.40;;
53207;SDS011;39093;52.788;6.940;2023-02-08T04:01:25;31.20;;;21.92;;
53207;SDS011;39093;52.788;6.940;2023-02-08T04:03:55;39.35;;;23.30;;
53207;SDS011;39093;52.788;6.940;2023-02-08T04:06:23;33.25;;;22.73;;
53207;SDS011;39093;52.788;6.940;2023-02-08T04:08:51;37.90;;;24.67;;
53207;SDS011;39093;52.788;6.940;2023-02-08T04:11:17;39.97;;;23.65;;
53207;SDS011;39093;52.788;6.940;2023-02-08T04:13:45;37.50;;;24.02;;
53207;SDS011;39093;52.788;6.940;2023-02-08T04:16:12;34.75;;;22.30;;
53207;SDS011;39093;52.788;6.940;2023-02-08T04:18:39;35.33;;;22.77;;
53207;SDS011;39093;52.788;6.940;2023-02-08T04:21:06;34.50;;;24.42;;
53207;SDS011;39093;52.788;6.940;2023-02-08T04:23:33;35.75;;;23.73;;
53207;SDS011;39093;52.788;6.940;2023-02-08T04:26:00;39.38;;;23.60;;
53207;SDS011;39093;52.788;6.940;2023-02-08T04:28:26;38.65;;;24.48;;
53207;SDS011;39093;52.788;6.940;2023-02-08T04:30:54;41.78;;;24.48;;
53207;SDS011;39093;52.788;6.940;2023-02-08T04:33:22;35.47;;;22.35;;
53207;SDS011;39093;52.788;6.940;2023-02-08T04:35:49;36.22;;;23.23;;
53207;SDS011;39093;52.788;6.940;2023-02-08T04:38:16;37.35;;;23.20;;
53207;SDS011;39093;52.788;6.940;2023-02-08T04:40:43;37.13;;;24.27;;
53207;SDS011;39093;52.788;6.940;2023-02-08T04:43:10;34.10;;;22.13;;
53207;SDS011;39093;52.788;6.940;2023-02-08T04:45:36;34.38;;;22.83;;
53207;SDS011;39093;52.788;6.940;2023-02-08T04:48:03;43.05;;;24.40;;
53207;SDS011;39093;52.788;6.940;2023-02-08T04:50:32;39.03;;;26.10;;
53207;SDS011;39093;52.788;6.940;2023-02-08T04:53:00;34.88;;;23.75;;
53207;SDS011;39093;52.788;6.940;2023-02-08T04:55:27;36.42;;;23.77;;
53207;SDS011;39093;52.788;6.940;2023-02-08T04:57:54;36.35;;;22.65;;
53207;SDS011;39093;52.788;6.940;2023-02-08T05:00:20;37.80;;;24.02;;
53207;SDS011;39093;52.788;6.940;2023-02-08T05:02:50;38.05;;;22.85;;
53207;SDS011;39093;52.788;6.940;2023-02-08T05:05:23;37.72;;;24.58;;
53207;SDS011;39093;52.788;6.940;2023-02-08T05:07:50;37.22;;;24.20;;
53207;SDS011;39093;52.788;6.940;2023-02-08T05:10:17;36.55;;;22.58;;
53207;SDS011;39093;52.788;6.940;2023-02-08T05:12:44;44.83;;;25.13;;
53207;SDS011;39093;52.788;6.940;2023-02-08T05:15:11;39.90;;;24.73;;
53207;SDS011;39093;52.788;6.940;2023-02-08T05:17:38;36.63;;;24.88;;
53207;SDS011;39093;52.788;6.940;2023-02-08T05:20:05;38.95;;;24.25;;
53207;SDS011;39093;52.788;6.940;2023-02-08T05:22:33;41.50;;;24.20;;
53207;SDS011;39093;52.788;6.940;2023-02-08T05:25:00;38.83;;;24.85;;
53207;SDS011;39093;52.788;6.940;2023-02-08T05:27:27;39.03;;;23.77;;
53207;SDS011;39093;52.788;6.940;2023-02-08T05:29:54;36.40;;;23.80;;
53207;SDS011;39093;52.788;6.940;2023-02-08T05:32:24;37.20;;;24.65;;
53207;SDS011;39093;52.788;6.940;2023-02-08T05:34:51;38.78;;;23.67;;
53207;SDS011;39093;52.788;6.940;2023-02-08T05:37:18;37.25;;;24.55;;
53207;SDS011;39093;52.788;6.940;2023-02-08T05:39:44;33.83;;;22.30;;
53207;SDS011;39093;52.788;6.940;2023-02-08T05:42:11;36.13;;;23.40;;
53207;SDS011;39093;52.788;6.940;2023-02-08T05:44:38;37.65;;;23.80;;
53207;SDS011;39093;52.788;6.940;2023-02-08T05:47:05;38.78;;;23.38;;
53207;SDS011;39093;52.788;6.940;2023-02-08T05:49:32;34.28;;;21.98;;
53207;SDS011;39093;52.788;6.940;2023-02-08T05:51:59;40.83;;;24.38;;
53207;SDS011;39093;52.788;6.940;2023-02-08T05:54:26;40.58;;;24.38;;
53207;SDS011;39093;52.788;6.940;2023-02-08T05:56:53;36.63;;;23.42;;
53207;SDS011;39093;52.788;6.940;2023-02-08T05:59:20;36.58;;;24.25;;
53207;SDS011;39093;52.788;6.940;2023-02-08T06:01:47;42.88;;;24.50;;
53207;SDS011;39093;52.788;6.940;2023-02-08T06:04:14;37.78;;;23.75;;
53207;SDS011;39093;52.788;6.940;2023-02-08T06:06:41;47.28;;;24.75;;
53207;SDS011;39093;52.788;6.940;2023-02-08T06:09:08;37.47;;;23.65;;
53207;SDS011;39093;52.788;6.940;2023-02-08T06:11:35;37.50;;;23.83;;
53207;SDS011;39093;52.788;6.940;2023-02-08T06:14:02;38.13;;;23.95;;
53207;SDS011;39093;52.788;6.940;2023-02-08T06:16:29;41.20;;;25.23;;
53207;SDS011;39093;52.788;6.940;2023-02-08T06:18:56;37.70;;;22.20;;
53207;SDS011;39093;52.788;6.940;2023-02-08T06:21:22;40.72;;;23.40;;
53207;SDS011;39093;52.788;6.940;2023-02-08T06:23:50;39.95;;;23.08;;
53207;SDS011;39093;52.788;6.940;2023-02-08T06:26:16;43.78;;;23.77;;
53207;SDS011;39093;52.788;6.940;2023-02-08T06:28:44;41.25;;;25.05;;
53207;SDS011;39093;52.788;6.940;2023-02-08T06:31:10;41.33;;;23.88;;
53207;SDS011;39093;52.788;6.940;2023-02-08T06:33:37;37.50;;;24.33;;
53207;SDS011;39093;52.788;6.940;2023-02-08T06:36:04;42.40;;;25.50;;
53207;SDS011;39093;52.788;6.940;2023-02-08T06:38:32;41.33;;;24.02;;
53207;SDS011;39093;52.788;6.940;2023-02-08T06:40:58;38.83;;;23.85;;
53207;SDS011;39093;52.788;6.940;2023-02-08T06:43:25;40.00;;;22.42;;
53207;SDS011;39093;52.788;6.940;2023-02-08T06:45:52;37.08;;;23.77;;
53207;SDS011;39093;52.788;6.940;2023-02-08T06:48:19;42.30;;;24.65;;
53207;SDS011;39093;52.788;6.940;2023-02-08T06:50:46;36.40;;;22.15;;
53207;SDS011;39093;52.788;6.940;2023-02-08T06:53:13;38.67;;;23.40;;
53207;SDS011;39093;52.788;6.940;2023-02-08T06:55:40;35.75;;;22.25;;
53207;SDS011;39093;52.788;6.940;2023-02-08T06:58:07;37.42;;;23.80;;
53207;SDS011;39093;52.788;6.940;2023-02-08T07:00:35;37.55;;;23.58;;
53207;SDS011;39093;52.788;6.940;2023-02-08T07:03:04;35.72;;;22.77;;
53207;SDS011;39093;52.788;6.940;2023-02-08T07:05:34;41.47;;;25.20;;
53207;SDS011;39093;52.788;6.940;2023-02-08T07:08:01;36.10;;;24.23;;
53207;SDS011;39093;52.788;6.940;2023-02-08T07:10:29;38.63;;;23.08;;
53207;SDS011;39093;52.788;6.940;2023-02-08T07:12:56;43.85;;;25.05;;
53207;SDS011;39093;52.788;6.940;2023-02-08T07:15:23;40.42;;;23.50;;
53207;SDS011;39093;52.788;6.940;2023-02-08T07:17:49;44.45;;;25.13;;
53207;SDS011;39093;52.788;6.940;2023-02-08T07:20:16;43.13;;;25.83;;
53207;SDS011;39093;52.788;6.940;2023-02-08T07:22:43;44.05;;;25.95;;
53207;SDS011;39093;52.788;6.940;2023-02-08T07:25:10;50.53;;;27.92;;
53207;SDS011;39093;52.788;6.940;2023-02-08T07:27:37;45.03;;;26.90;;
53207;SDS011;39093;52.788;6.940;2023-02-08T07:30:04;44.10;;;27.33;;
53207;SDS011;39093;52.788;6.940;2023-02-08T07:32:33;46.33;;;27.02;;
53207;SDS011;39093;52.788;6.940;2023-02-08T07:35:01;53.33;;;28.10;;
53207;SDS011;39093;52.788;6.940;2023-02-08T07:37:27;47.75;;;29.95;;
53207;SDS011;39093;52.788;6.940;2023-02-08T07:39:54;48.50;;;29.83;;
53207;SDS011;39093;52.788;6.940;2023-02-08T07:42:21;48.13;;;29.05;;
53207;SDS011;39093;52.788;6.940;2023-02-08T07:44:48;53.65;;;30.73;;
53207;SDS011;39093;52.788;6.940;2023-02-08T07:47:15;58.83;;;32.17;;
53207;SDS011;39093;52.788;6.940;2023-02-08T07:49:42;60.03;;;33.10;;
53207;SDS011;39093;52.788;6.940;2023-02-08T07:52:09;58.28;;;33.75;;
53207;SDS011;39093;52.788;6.940;2023-02-08T07:54:36;54.58;;;30.25;;
53207;SDS011;39093;52.788;6.940;2023-02-08T07:57:03;52.50;;;29.25;;
53207;SDS011;39093;52.788;6.940;2023-02-08T07:59:30;47.75;;;27.10;;
53207;SDS011;39093;52.788;6.940;2023-02-08T08:01:57;48.95;;;28.35;;
53207;SDS011;39093;52.788;6.940;2023-02-08T08:04:24;47.88;;;26.98;;
53207;SDS011;39093;52.788;6.940;2023-02-08T08:06:51;47.67;;;27.42;;
53207;SDS011;39093;52.788;6.940;2023-02-08T08:09:18;46.55;;;26.50;;
53207;SDS011;39093;52.788;6.940;2023-02-08T08:11:45;51.45;;;29.25;;
53207;SDS011;39093;52.788;6.940;2023-02-08T08:14:12;47.13;;;27.92;;
53207;SDS011;39093;52.788;6.940;2023-02-08T08:16:39;48.80;;;28.30;;
53207;SDS011;39093;52.788;6.940;2023-02-08T08:19:08;45.92;;;27.38;;
53207;SDS011;39093;52.788;6.940;2023-02-08T08:21:35;47.97;;;26.45;;
53207;SDS011;39093;52.788;6.940;2023-02-08T08:24:02;48.38;;;26.50;;
53207;SDS011;39093;52.788;6.940;2023-02-08T08:26:29;44.20;;;25.85;;
53207;SDS011;39093;52.788;6.940;2023-02-08T08:28:56;53.00;;;26.45;;
53207;SDS011;39093;52.788;6.940;2023-02-08T08:31:23;41.17;;;25.17;;
53207;SDS011;39093;52.788;6.940;2023-02-08T08:33:50;40.45;;;24.95;;
53207;SDS011;39093;52.788;6.940;2023-02-08T08:36:17;46.67;;;26.73;;
53207;SDS011;39093;52.788;6.940;2023-02-08T08:38:44;44.60;;;25.13;;
53207;SDS011;39093;52.788;6.940;2023-02-08T08:41:13;42.65;;;23.38;;
53207;SDS011;39093;52.788;6.940;2023-02-08T08:43:43;42.95;;;24.20;;
53207;SDS011;39093;52.788;6.940;2023-02-08T08:46:10;41.40;;;25.27;;
53207;SDS011;39093;52.788;6.940;2023-02-08T08:48:37;44.22;;;25.02;;
53207;SDS011;39093;52.788;6.940;2023-02-08T08:51:04;39.83;;;23.10;;
53207;SDS011;39093;52.788;6.940;2023-02-08T08:53:32;45.22;;;24.15;;
53207;SDS011;39093;52.788;6.940;2023-02-08T08:56:00;41.75;;;25.20;;
53207;SDS011;39093;52.788;6.940;2023-02-08T08:58:27;39.35;;;24.02;;
53207;SDS011;39093;52.788;6.940;2023-02-08T09:00:55;42.13;;;25.10;;
53207;SDS011;39093;52.788;6.940;2023-02-08T09:03:24;42.63;;;24.38;;
53207;SDS011;39093;52.788;6.940;2023-02-08T09:05:51;39.97;;;24.08;;
53207;SDS011;39093;52.788;6.940;2023-02-08T09:08:18;38.42;;;23.83;;
53207;SDS011;39093;52.788;6.940;2023-02-08T09:10:46;43.65;;;25.67;;
53207;SDS011;39093;52.788;6.940;2023-02-08T09:13:12;42.22;;;24.80;;
53207;SDS011;39093;52.788;6.940;2023-02-08T09:15:45;38.25;;;23.52;;
53207;SDS011;39093;52.788;6.940;2023-02-08T09:18:13;44.00;;;23.48;;
53207;SDS011;39093;52.788;6.940;2023-02-08T09:20:40;37.60;;;23.13;;
53207;SDS011;39093;52.788;6.940;2023-02-08T09:23:08;37.58;;;24.45;;
53207;SDS011;39093;52.788;6.940;2023-02-08T09:25:35;46.97;;;25.73;;
53207;SDS011;39093;52.788;6.940;2023-02-08T09:28:02;36.10;;;22.95;;
53207;SDS011;39093;52.788;6.940;2023-02-08T09:30:30;38.88;;;23.88;;
53207;SDS011;39093;52.788;6.940;2023-02-08T09:32:57;35.58;;;20.40;;
53207;SDS011;39093;52.788;6.940;2023-02-08T09:35:24;36.50;;;22.65;;
53207;SDS011;39093;52.788;6.940;2023-02-08T09:37:52;39.53;;;24.25;;
53207;SDS011;39093;52.788;6.940;2023-02-08T09:40:22;37.53;;;23.73;;
53207;SDS011;39093;52.788;6.940;2023-02-08T09:42:54;42.50;;;23.13;;
53207;SDS011;39093;52.788;6.940;2023-02-08T09:45:56;38.58;;;23.13;;
53207;SDS011;39093;52.788;6.940;2023-02-08T09:48:28;37.95;;;21.08;;
53207;SDS011;39093;52.788;6.940;2023-02-08T09:51:21;41.90;;;22.40;;
53207;SDS011;39093;52.788;6.940;2023-02-08T09:53:48;39.67;;;23.20;;
53207;SDS011;39093;52.788;6.940;2023-02-08T09:56:19;40.45;;;22.45;;
53207;SDS011;39093;52.788;6.940;2023-02-08T09:58:53;33.45;;;20.63;;
53207;SDS011;39093;52.788;6.940;2023-02-08T10:01:26;41.38;;;20.92;;
53207;SDS011;39093;52.788;6.940;2023-02-08T10:03:58;33.35;;;21.83;;
53207;SDS011;39093;52.788;6.940;2023-02-08T10:06:38;34.63;;;20.83;;
53207;SDS011;39093;52.788;6.940;2023-02-08T10:09:06;32.30;;;19.95;;
53207;SDS011;39093;52.788;6.940;2023-02-08T10:11:43;32.92;;;19.80;;
53207;SDS011;39093;52.788;6.940;2023-02-08T10:17:08;35.58;;;20.83;;
53207;SDS011;39093;52.788;6.940;2023-02-08T10:25:38;29.50;;;19.48;;
53207;SDS011;39093;52.788;6.940;2023-02-08T10:33:40;28.25;;;18.75;;
53207;SDS011;39093;52.788;6.940;2023-02-08T10:36:26;30.10;;;18.20;;
53207;SDS011;39093;52.788;6.940;2023-02-08T10:38:57;33.42;;;17.88;;
53207;SDS011;39093;52.788;6.940;2023-02-08T10:41:27;28.58;;;18.42;;
53207;SDS011;39093;52.788;6.940;2023-02-08T10:44:04;26.35;;;16.92;;
53207;SDS011;39093;52.788;6.940;2023-02-08T10:46:40;26.40;;;17.10;;
53207;SDS011;39093;52.788;6.940;2023-02-08T10:51:52;24.73;;;16.25;;
53207;SDS011;39093;52.788;6.940;2023-02-08T10:54:19;22.00;;;15.23;;
53207;SDS011;39093;52.788;6.940;2023-02-08T10:56:56;22.98;;;15.93;;
53207;SDS011;39093;52.788;6.940;2023-02-08T10:59:32;23.15;;;13.95;;
53207;SDS011;39093;52.788;6.940;2023-02-08T11:08:24;20.88;;;12.35;;
53207;SDS011;39093;52.788;6.940;2023-02-08T11:10:58;22.42;;;13.02;;
53207;SDS011;39093;52.788;6.940;2023-02-08T11:16:04;20.20;;;12.52;;
53207;SDS011;39093;52.788;6.940;2023-02-08T11:18:33;25.60;;;15.25;;
53207;SDS011;39093;52.788;6.940;2023-02-08T11:21:07;30.17;;;13.85;;
53207;SDS011;39093;52.788;6.940;2023-02-08T11:23:38;22.63;;;11.90;;
53207;SDS011;39093;52.788;6.940;2023-02-08T11:29:01;18.17;;;11.88;;
53207;SDS011;39093;52.788;6.940;2023-02-08T11:31:31;18.25;;;12.80;;
53207;SDS011;39093;52.788;6.940;2023-02-08T11:34:01;21.73;;;11.88;;
53207;SDS011;39093;52.788;6.940;2023-02-08T11:36:29;17.67;;;11.68;;
53207;SDS011;39093;52.788;6.940;2023-02-08T11:39:00;16.33;;;11.25;;
53207;SDS011;39093;52.788;6.940;2023-02-08T11:41:28;14.23;;;9.40;;
53207;SDS011;39093;52.788;6.940;2023-02-08T11:43:56;15.60;;;9.55;;
53207;SDS011;39093;52.788;6.940;2023-02-08T11:46:28;15.13;;;9.85;;
53207;SDS011;39093;52.788;6.940;2023-02-08T11:48:58;18.63;;;8.10;;
53207;SDS011;39093;52.788;6.940;2023-02-08T11:54:04;14.00;;;9.45;;
53207;SDS011;39093;52.788;6.940;2023-02-08T11:56:32;16.67;;;9.77;;
53207;SDS011;39093;52.788;6.940;2023-02-08T12:01:38;18.48;;;10.77;;
53207;SDS011;39093;52.788;6.940;2023-02-08T12:04:08;18.10;;;8.68;;
53207;SDS011;39093;52.788;6.940;2023-02-08T12:15:02;20.15;;;12.82;;
53207;SDS011;39093;52.788;6.940;2023-02-08T12:25:52;19.25;;;10.02;;
53207;SDS011;39093;52.788;6.940;2023-02-08T12:33:55;20.60;;;11.65;;
53207;SDS011;39093;52.788;6.940;2023-02-08T12:43:07;16.08;;;9.73;;
53207;SDS011;39093;52.788;6.940;2023-02-08T12:48:17;16.90;;;10.20;;
53207;SDS011;39093;52.788;6.940;2023-02-08T12:51:52;17.92;;;10.15;;
53207;SDS011;39093;52.788;6.940;2023-02-08T12:57:03;15.10;;;9.13;;
53207;SDS011;39093;52.788;6.940;2023-02-08T12:59:36;14.75;;;8.90;;
53207;SDS011;39093;52.788;6.940;2023-02-08T13:02:38;17.42;;;9.02;;
53207;SDS011;39093;52.788;6.940;2023-02-08T13:05:17;14.48;;;8.90;;
53207;SDS011;39093;52.788;6.940;2023-02-08T13:07:48;13.50;;;8.32;;
53207;SDS011;39093;52.788;6.940;2023-02-08T13:10:33;15.90;;;8.10;;
53207;SDS011;39093;52.788;6.940;2023-02-08T13:15:44;13.45;;;7.30;;
53207;SDS011;39093;52.788;6.940;2023-02-08T13:18:42;18.83;;;7.22;;
53207;SDS011;39093;52.788;6.940;2023-02-08T13:21:18;15.73;;;7.30;;
53207;SDS011;39093;52.788;6.940;2023-02-08T13:23:51;11.20;;;7.45;;
53207;SDS011;39093;52.788;6.940;2023-02-08T13:28:54;13.00;;;7.13;;
53207;SDS011;39093;52.788;6.940;2023-02-08T13:31:30;11.27;;;7.03;;
53207;SDS011;39093;52.788;6.940;2023-02-08T13:37:22;15.70;;;7.07;;
53207;SDS011;39093;52.788;6.940;2023-02-08T13:39:57;13.98;;;6.80;;
53207;SDS011;39093;52.788;6.940;2023-02-08T13:42:41;12.88;;;7.95;;
53207;SDS011;39093;52.788;6.940;2023-02-08T13:45:30;11.25;;;6.38;;
53207;SDS011;39093;52.788;6.940;2023-02-08T13:48:01;10.23;;;7.03;;
53207;SDS011;39093;52.788;6.940;2023-02-08T13:53:00;15.98;;;8.05;;
53207;SDS011;39093;52.788;6.940;2023-02-08T13:57:59;13.32;;;7.60;;
53207;SDS011;39093;52.788;6.940;2023-02-08T14:00:28;13.93;;;7.20;;
53207;SDS011;39093;52.788;6.940;2023-02-08T14:03:00;9.63;;;6.47;;
53207;SDS011;39093;52.788;6.940;2023-02-08T14:11:11;8.65;;;5.70;;
53207;SDS011;39093;52.788;6.940;2023-02-08T14:14:05;9.90;;;7.10;;
53207;SDS011;39093;52.788;6.940;2023-02-08T14:16:46;8.93;;;6.13;;
53207;SDS011;39093;52.788;6.940;2023-02-08T14:19:30;9.05;;;6.53;;
53207;SDS011;39093;52.788;6.940;2023-02-08T14:22:00;8.70;;;5.85;;
53207;SDS011;39093;52.788;6.940;2023-02-08T14:24:37;8.07;;;5.45;;
53207;SDS011;39093;52.788;6.940;2023-02-08T14:29:58;13.55;;;7.22;;
53207;SDS011;39093;52.788;6.940;2023-02-08T14:32:45;9.50;;;5.65;;
53207;SDS011;39093;52.788;6.940;2023-02-08T14:38:29;11.48;;;6.45;;
53207;SDS011;39093;52.788;6.940;2023-02-08T14:43:26;10.52;;;6.13;;
53207;SDS011;39093;52.788;6.940;2023-02-08T14:49:12;9.25;;;5.47;;
53207;SDS011;39093;52.788;6.940;2023-02-08T14:54:45;10.70;;;6.00;;
53207;SDS011;39093;52.788;6.940;2023-02-08T14:57:25;8.40;;;5.60;;
53207;SDS011;39093;52.788;6.940;2023-02-08T14:59:57;7.20;;;4.80;;
53207;SDS011;39093;52.788;6.940;2023-02-08T15:02:26;6.10;;;4.45;;
53207;SDS011;39093;52.788;6.940;2023-02-08T15:04:58;8.02;;;4.68;;
53207;SDS011;39093;52.788;6.940;2023-02-08T15:10:23;9.07;;;5.22;;
53207;SDS011;39093;52.788;6.940;2023-02-08T15:12:55;6.70;;;3.85;;
53207;SDS011;39093;52.788;6.940;2023-02-08T15:15:33;6.78;;;4.72;;
53207;SDS011;39093;52.788;6.940;2023-02-08T15:18:15;8.00;;;4.18;;
53207;SDS011;39093;52.788;6.940;2023-02-08T15:20:45;6.30;;;4.32;;
53207;SDS011;39093;52.788;6.940;2023-02-08T15:23:23;6.55;;;4.47;;
53207;SDS011;39093;52.788;6.940;2023-02-08T15:25:58;6.93;;;4.18;;
53207;SDS011;39093;52.788;6.940;2023-02-08T15:28:32;6.53;;;3.80;;
53207;SDS011;39093;52.788;6.940;2023-02-08T15:31:02;6.28;;;4.63;;
53207;SDS011;39093;52.788;6.940;2023-02-08T15:33:33;6.97;;;4.20;;
53207;SDS011;39093;52.788;6.940;2023-02-08T15:36:07;6.63;;;4.03;;
53207;SDS011;39093;52.788;6.940;2023-02-08T15:38:53;7.63;;;4.40;;
53207;SDS011;39093;52.788;6.940;2023-02-08T15:41:23;7.03;;;3.90;;
53207;SDS011;39093;52.788;6.940;2023-02-08T15:44:01;7.43;;;4.53;;
53207;SDS011;39093;52.788;6.940;2023-02-08T15:46:43;6.47;;;3.50;;
53207;SDS011;39093;52.788;6.940;2023-02-08T15:49:13;5.80;;;3.80;;
53207;SDS011;39093;52.788;6.940;2023-02-08T15:51:43;5.57;;;3.60;;
53207;SDS011;39093;52.788;6.940;2023-02-08T15:54:14;6.93;;;4.22;;
53207;SDS011;39093;52.788;6.940;2023-02-08T15:59:58;7.70;;;4.78;;
53207;SDS011;39093;52.788;6.940;2023-02-08T16:02:29;7.65;;;3.47;;
53207;SDS011;39093;52.788;6.940;2023-02-08T16:04:59;4.80;;;3.95;;
53207;SDS011;39093;52.788;6.940;2023-02-08T16:07:32;7.00;;;4.55;;
53207;SDS011;39093;52.788;6.940;2023-02-08T16:10:03;5.45;;;3.63;;
53207;SDS011;39093;52.788;6.940;2023-02-08T16:12:31;6.03;;;3.47;;
53207;SDS011;39093;52.788;6.940;2023-02-08T16:14:59;6.03;;;4.25;;
53207;SDS011;39093;52.788;6.940;2023-02-08T16:20:31;5.20;;;3.63;;
53207;SDS011;39093;52.788;6.940;2023-02-08T16:23:00;10.15;;;5.22;;
53207;SDS011;39093;52.788;6.940;2023-02-08T16:25:33;9.02;;;4.45;;
53207;SDS011;39093;52.788;6.940;2023-02-08T16:28:03;7.15;;;4.40;;
53207;SDS011;39093;52.788;6.940;2023-02-08T16:30:31;9.98;;;4.85;;
53207;SDS011;39093;52.788;6.940;2023-02-08T16:33:04;6.03;;;4.05;;
53207;SDS011;39093;52.788;6.940;2023-02-08T16:35:32;7.55;;;4.47;;
53207;SDS011;39093;52.788;6.940;2023-02-08T16:38:02;8.00;;;4.68;;
53207;SDS011;39093;52.788;6.940;2023-02-08T16:43:32;8.25;;;4.15;;
53207;SDS011;39093;52.788;6.940;2023-02-08T16:48:37;7.28;;;4.30;;
53207;SDS011;39093;52.788;6.940;2023-02-08T16:51:12;7.20;;;4.93;;
53207;SDS011;39093;52.788;6.940;2023-02-08T16:53:52;7.95;;;4.30;;
53207;SDS011;39093;52.788;6.940;2023-02-08T16:56:21;8.32;;;5.47;;
53207;SDS011;39093;52.788;6.940;2023-02-08T16:58:48;8.60;;;4.97;;
53207;SDS011;39093;52.788;6.940;2023-02-08T17:01:15;8.23;;;5.07;;
53207;SDS011;39093;52.788;6.940;2023-02-08T17:03:48;6.25;;;4.47;;
53207;SDS011;39093;52.788;6.940;2023-02-08T17:06:20;7.13;;;4.97;;
53207;SDS011;39093;52.788;6.940;2023-02-08T17:08:53;6.68;;;4.75;;
53207;SDS011;39093;52.788;6.940;2023-02-08T17:11:21;9.70;;;5.15;;
53207;SDS011;39093;52.788;6.940;2023-02-08T17:13:48;8.50;;;5.15;;
53207;SDS011;39093;52.788;6.940;2023-02-08T17:16:21;7.65;;;5.50;;
53207;SDS011;39093;52.788;6.940;2023-02-08T17:18:50;10.10;;;6.15;;
53207;SDS011;39093;52.788;6.940;2023-02-08T17:21:20;9.80;;;5.47;;
53207;SDS011;39093;52.788;6.940;2023-02-08T20:28:12;18.35;;;10.32;;
53207;SDS011;39093;52.788;6.940;2023-02-08T20:30:40;20.38;;;11.27;;